createdAt,value
2022-09-09T00:01:51.219Z,3.00
2022-09-09T00:06:04.566Z,2.65
2022-09-09T00:10:19.053Z,3.10
2022-09-09T00:14:38.109Z,2.80
2022-09-09T00:18:58.420Z,3.13
2022-09-09T00:23:02.831Z,2.22
2022-09-09T00:27:23.279Z,2.58
2022-09-09T00:31:27.568Z,1.50
2022-09-09T00:35:40.670Z,2.55
2022-09-09T00:39:43.644Z,4.07
2022-09-09T00:43:47.823Z,1.75
2022-09-09T00:47:52.880Z,2.63
2022-09-09T00:51:57.351Z,3.03
2022-09-09T00:56:07.767Z,2.95
2022-09-09T01:00:23.031Z,3.35
2022-09-09T01:04:29.994Z,3.05
2022-09-09T01:08:40.400Z,2.40
2022-09-09T01:12:43.026Z,2.72
2022-09-09T01:16:45.282Z,2.53
2022-09-09T01:25:31.005Z,2.72
2022-09-09T01:29:32.635Z,3.63
2022-09-09T01:33:33.931Z,2.60
2022-09-09T01:37:35.240Z,2.83
2022-09-09T01:41:36.578Z,2.60
2022-09-09T01:45:39.197Z,3.58
2022-09-09T01:49:40.505Z,3.33
2022-09-09T01:53:42.778Z,2.47
2022-09-09T01:58:04.303Z,2.13
2022-09-09T02:02:18.688Z,1.80
2022-09-09T02:06:26.159Z,3.03
2022-09-09T02:10:46.213Z,2.28
2022-09-09T02:14:57.048Z,1.92
2022-09-09T02:19:03.641Z,1.58
2022-09-09T02:23:05.670Z,1.75
2022-09-09T02:27:09.764Z,1.55
2022-09-09T02:31:11.101Z,1.48
2022-09-09T02:35:18.407Z,1.63
2022-09-09T02:39:19.903Z,1.67
2022-09-09T02:47:35.911Z,1.60
2022-09-09T02:51:40.154Z,1.35
2022-09-09T02:55:44.482Z,0.93
2022-09-09T02:59:46.043Z,1.60
2022-09-09T03:03:47.416Z,1.58
2022-09-09T03:07:48.757Z,1.75
2022-09-09T03:11:50.417Z,1.38
2022-09-09T03:15:52.690Z,1.17
2022-09-09T03:19:55.408Z,1.15
2022-09-09T03:23:58.335Z,1.52
2022-09-09T03:27:59.901Z,1.02
2022-09-09T03:36:02.602Z,1.25
2022-09-09T03:40:03.930Z,1.40
2022-09-09T03:44:05.276Z,0.80
2022-09-09T03:48:07.234Z,1.05
2022-09-09T03:52:09.476Z,2.50
2022-09-09T03:56:10.797Z,1.10
2022-09-09T04:00:12.761Z,2.53
2022-09-09T04:04:14.126Z,1.58
2022-09-09T04:08:15.470Z,0.70
2022-09-09T04:12:17.622Z,0.80
2022-09-09T04:16:18.975Z,0.73
2022-09-09T04:20:20.436Z,1.10
2022-09-09T04:28:24.854Z,1.45
2022-09-09T04:32:28.651Z,1.00
2022-09-09T04:36:29.903Z,1.13
2022-09-09T04:40:31.862Z,0.80
2022-09-09T04:44:33.356Z,0.70
2022-09-09T04:52:36.553Z,1.13
2022-09-09T04:56:37.781Z,1.08
2022-09-09T05:00:39.088Z,0.73
2022-09-09T05:04:40.343Z,0.90
2022-09-09T05:08:42.241Z,0.45
2022-09-09T05:12:43.582Z,1.20
2022-09-09T05:16:50.511Z,1.55
2022-09-09T05:20:52.098Z,0.98
2022-09-09T05:24:53.513Z,1.05
2022-09-09T05:28:54.839Z,0.40
2022-09-09T05:32:59.415Z,1.08
2022-09-09T05:37:00.733Z,1.25
2022-09-09T05:41:02.565Z,0.80
2022-09-09T05:45:04.027Z,0.80
2022-09-09T05:53:07.990Z,2.05
2022-09-09T05:57:10.537Z,1.10
2022-09-09T06:01:14.483Z,0.93
2022-09-09T06:05:16.275Z,0.75
2022-09-09T06:09:17.796Z,0.65
2022-09-09T06:17:20.549Z,0.77
2022-09-09T06:21:25.198Z,0.47
2022-09-09T06:25:26.521Z,0.68
2022-09-09T06:29:28.000Z,1.40
2022-09-09T06:37:30.793Z,0.73
2022-09-09T06:45:33.804Z,0.80
2022-09-09T06:53:39.055Z,1.08
2022-09-09T06:57:40.634Z,0.50
2022-09-09T07:01:44.755Z,0.85
2022-09-09T07:05:54.745Z,0.82
2022-09-09T07:09:56.217Z,0.98
2022-09-09T07:22:04.440Z,0.80
2022-09-09T07:26:10.428Z,0.60
2022-09-09T07:30:14.633Z,0.73
2022-09-09T07:34:20.099Z,1.27
2022-09-09T07:38:24.715Z,1.15
2022-09-09T07:42:26.330Z,1.27
2022-09-09T07:46:27.894Z,0.50
2022-09-09T07:50:29.461Z,0.90
2022-09-09T07:54:30.894Z,0.75
2022-09-09T08:02:39.385Z,1.02
2022-09-09T08:06:41.428Z,0.45
2022-09-09T08:10:42.816Z,0.90
2022-09-09T08:18:45.798Z,0.35
2022-09-09T08:22:47.343Z,0.60
2022-09-09T08:26:50.457Z,0.70
2022-09-09T08:30:54.409Z,1.15
2022-09-09T08:35:01.071Z,0.93
2022-09-09T08:39:03.864Z,0.52
2022-09-09T08:43:06.212Z,0.60
2022-09-09T08:47:33.715Z,0.50
2022-09-09T08:51:35.729Z,0.60
2022-09-09T08:55:43.158Z,0.30
2022-09-09T08:59:44.610Z,0.70
2022-09-09T10:40:33.291Z,0.30
2022-09-09T10:44:49.506Z,0.47
2022-09-09T10:49:09.522Z,0.80
2022-09-09T10:53:32.158Z,0.70
2022-09-09T10:57:37.364Z,0.50
2022-09-09T11:01:41.730Z,0.55
2022-09-09T11:05:43.007Z,0.28
2022-09-09T11:09:49.304Z,0.50
2022-09-09T11:13:53.169Z,0.52
2022-09-09T11:17:58.640Z,0.60
2022-09-09T11:22:04.603Z,0.60
2022-09-09T11:26:08.576Z,0.70
2022-09-09T11:30:44.044Z,0.50
2022-09-09T11:34:58.059Z,0.63
2022-09-09T11:39:13.920Z,0.73
2022-09-09T11:43:18.652Z,0.95
2022-09-09T11:47:25.741Z,0.63
2022-09-09T11:51:29.388Z,0.70
2022-09-09T11:55:34.224Z,0.68
2022-09-09T11:59:36.886Z,0.88
2022-09-09T12:03:48.486Z,0.80
2022-09-09T12:07:59.922Z,0.60
2022-09-09T12:16:07.201Z,0.52
2022-09-09T12:20:18.865Z,0.90
2022-09-09T12:24:33.844Z,0.63
2022-09-09T12:28:54.223Z,1.00
2022-09-09T12:33:17.549Z,1.30
2022-09-09T12:37:30.401Z,0.93
2022-09-09T12:41:31.949Z,1.10
2022-09-09T12:45:34.087Z,0.95
2022-09-09T12:49:37.502Z,1.30
2022-09-09T12:53:40.084Z,1.00
2022-09-09T12:57:41.626Z,1.17
2022-09-09T13:01:43.157Z,1.00
2022-09-09T13:05:44.662Z,1.33
2022-09-09T13:09:46.849Z,1.55
2022-09-09T13:13:54.166Z,1.38
2022-09-09T13:17:58.009Z,0.73
2022-09-09T13:21:59.448Z,1.35
2022-09-09T13:30:45.795Z,0.80
2022-09-09T13:34:58.824Z,1.33
2022-09-09T13:39:01.358Z,0.93
2022-09-09T13:43:03.285Z,0.88
2022-09-09T13:47:20.171Z,1.13
2022-09-09T13:51:28.759Z,1.10
2022-09-09T13:55:31.519Z,1.00
2022-09-09T14:03:55.848Z,0.98
2022-09-09T14:07:58.801Z,0.70
2022-09-09T14:12:13.066Z,0.80
2022-09-09T14:16:15.996Z,0.90
2022-09-09T14:20:18.895Z,0.50
2022-09-09T14:24:20.766Z,1.13
2022-09-09T14:28:34.270Z,1.25
2022-09-09T14:32:43.756Z,0.40
2022-09-09T14:40:48.070Z,0.80
2022-09-09T14:44:49.657Z,0.88
2022-09-09T14:48:52.114Z,0.93
2022-09-09T14:52:53.800Z,0.52
2022-09-09T14:56:55.240Z,0.70
2022-09-09T15:00:56.811Z,0.65
2022-09-09T15:05:04.860Z,0.40
2022-09-09T15:09:06.658Z,0.90
2022-09-09T15:13:09.017Z,0.60
2022-09-09T15:17:10.399Z,1.30
2022-09-09T15:25:13.547Z,0.38
2022-09-09T15:29:15.204Z,0.60
2022-09-09T15:33:22.094Z,0.40
2022-09-09T15:37:26.765Z,0.55
2022-09-09T15:41:34.085Z,0.50
2022-09-09T15:45:37.642Z,0.70
2022-09-09T15:49:42.271Z,0.93
2022-09-09T15:53:48.236Z,0.75
2022-09-09T15:57:59.708Z,1.05
2022-09-09T16:06:17.730Z,0.55
2022-09-09T16:10:19.544Z,1.52
2022-09-09T16:14:21.287Z,0.70
2022-09-09T16:18:42.753Z,0.70
2022-09-09T16:26:47.399Z,0.52
2022-09-09T16:30:48.991Z,0.52
2022-09-09T16:34:50.318Z,0.70
2022-09-09T16:38:55.910Z,0.93
2022-09-09T16:42:57.438Z,0.60
2022-09-09T16:47:00.929Z,0.75
2022-09-09T16:51:04.864Z,1.05
2022-09-09T16:55:06.222Z,0.45
2022-09-09T17:03:12.279Z,0.60
2022-09-09T17:07:13.564Z,0.80
2022-09-09T17:11:16.425Z,1.45
2022-09-09T17:15:18.985Z,0.88
2022-09-09T17:19:20.237Z,0.45
2022-09-09T17:23:21.478Z,0.50
2022-09-09T17:27:22.746Z,1.08
2022-09-09T17:31:24.413Z,0.73
2022-09-09T17:35:25.894Z,0.82
2022-09-09T17:43:28.351Z,1.10
2022-09-09T17:47:31.624Z,0.93
2022-09-09T17:51:34.398Z,0.63
2022-09-09T17:55:35.853Z,0.93
2022-09-09T18:07:40.520Z,0.63
2022-09-09T18:15:49.739Z,0.55
2022-09-09T18:19:51.265Z,0.73
2022-09-09T18:23:52.719Z,0.60
2022-09-09T18:32:38.738Z,0.57
2022-09-09T18:36:42.325Z,1.05
2022-09-09T18:40:46.826Z,0.75
2022-09-09T18:44:48.208Z,0.50
2022-09-09T18:48:50.421Z,1.02
2022-09-09T18:52:52.851Z,0.90
2022-09-09T18:56:54.229Z,0.55
2022-09-09T19:01:07.363Z,0.47
2022-09-09T19:05:10.153Z,0.40
2022-09-09T19:09:12.250Z,0.65
2022-09-09T19:13:14.284Z,0.73
2022-09-09T19:17:16.053Z,0.77
2022-09-09T19:21:22.169Z,0.82
2022-09-09T19:25:23.512Z,0.60
2022-09-09T19:29:26.266Z,0.60
2022-09-09T19:33:27.795Z,0.73
2022-09-09T19:41:31.556Z,0.63
2022-09-09T19:45:32.912Z,0.95
2022-09-09T19:49:35.216Z,0.90
2022-09-09T19:53:39.270Z,0.50
2022-09-09T19:57:40.536Z,0.52
2022-09-09T20:01:44.809Z,0.40
2022-09-09T20:05:49.242Z,0.50
2022-09-09T20:09:50.472Z,0.40
2022-09-09T20:13:52.161Z,0.52
2022-09-09T20:17:54.632Z,0.43
2022-09-09T20:21:56.007Z,0.70
2022-09-09T20:26:01.637Z,0.55
2022-09-09T20:30:03.655Z,0.70
2022-09-09T20:34:06.022Z,0.60
2022-09-09T20:38:08.093Z,0.60
2022-09-09T20:42:09.375Z,1.00
2022-09-09T20:46:10.670Z,0.80
2022-09-09T20:50:11.966Z,0.80
2022-09-09T20:54:23.507Z,0.90
2022-09-09T21:02:26.315Z,0.60
2022-09-09T21:06:27.625Z,0.60
2022-09-09T21:10:32.291Z,0.90
2022-09-09T21:14:33.867Z,1.10
2022-09-09T21:22:36.295Z,1.35
2022-09-09T21:26:37.572Z,0.75
2022-09-09T21:30:44.102Z,0.88
2022-09-09T21:34:45.816Z,0.65
2022-09-09T21:42:48.684Z,0.43
2022-09-09T21:46:49.916Z,0.85
2022-09-09T21:50:52.787Z,0.77
2022-09-09T21:54:54.329Z,0.80
2022-09-09T21:58:56.798Z,0.60
2022-09-09T22:03:02.650Z,0.55
2022-09-09T22:07:04.027Z,0.73
2022-09-09T22:15:07.741Z,0.50
2022-09-09T22:19:08.965Z,0.80
2022-09-09T22:23:10.728Z,0.52
2022-09-09T22:27:12.371Z,0.50
2022-09-09T22:31:13.688Z,0.95
2022-09-09T22:35:14.919Z,0.80
2022-09-09T22:39:16.241Z,0.50
2022-09-09T22:43:19.299Z,0.95
2022-09-09T22:47:21.189Z,0.40
2022-09-09T22:51:22.462Z,0.38
2022-09-09T22:55:23.717Z,1.33
2022-09-09T22:59:24.953Z,1.02
2022-09-09T23:03:26.715Z,0.60
2022-09-09T23:07:28.154Z,0.93
2022-09-09T23:11:31.487Z,0.88
2022-09-09T23:15:32.727Z,0.80
2022-09-09T23:19:34.035Z,0.82
2022-09-09T23:23:35.305Z,0.77
2022-09-09T23:27:38.530Z,1.33
2022-09-09T23:31:40.246Z,0.57
2022-09-09T23:35:41.869Z,0.63
2022-09-09T23:39:43.430Z,0.60
2022-09-09T23:43:45.042Z,1.00
2022-09-09T23:51:49.533Z,0.52
2022-09-09T23:55:50.784Z,0.43
2022-09-09T23:59:52.031Z,1.10
